createdAt,value
2022-11-13T00:00:54.723Z,100.00
2022-11-13T00:03:21.164Z,100.00
2022-11-13T00:05:47.601Z,100.00
2022-11-13T00:08:14.393Z,100.00
2022-11-13T00:10:40.937Z,100.00
2022-11-13T00:13:07.345Z,100.00
2022-11-13T00:15:33.781Z,100.00
2022-11-13T00:18:03.565Z,100.00
2022-11-13T00:20:30.051Z,100.00
2022-11-13T00:22:56.515Z,100.00
2022-11-13T00:25:22.960Z,100.00
2022-11-13T00:27:49.485Z,100.00
2022-11-13T00:30:19.567Z,100.00
2022-11-13T00:32:46.309Z,100.00
2022-11-13T00:35:12.888Z,100.00
2022-11-13T00:37:39.293Z,100.00
2022-11-13T00:40:06.070Z,100.00
2022-11-13T00:42:32.499Z,100.00
2022-11-13T00:44:58.902Z,100.00
2022-11-13T00:47:25.304Z,100.00
2022-11-13T00:49:51.730Z,100.00
2022-11-13T00:52:18.129Z,100.00
2022-11-13T00:54:44.533Z,100.00
2022-11-13T00:57:10.923Z,100.00
2022-11-13T00:59:37.375Z,100.00
2022-11-13T01:02:03.853Z,100.00
2022-11-13T01:04:30.343Z,100.00
2022-11-13T01:06:56.798Z,100.00
2022-11-13T01:09:23.230Z,100.00
2022-11-13T01:11:49.647Z,100.00
2022-11-13T01:14:16.096Z,100.00
2022-11-13T01:16:42.506Z,100.00
2022-11-13T01:19:09.007Z,100.00
2022-11-13T01:21:35.462Z,100.00
2022-11-13T01:24:01.903Z,100.00
2022-11-13T01:26:30.388Z,100.00
2022-11-13T01:28:58.495Z,100.00
2022-11-13T01:31:28.660Z,100.00
2022-11-13T01:33:55.231Z,100.00
2022-11-13T01:36:24.886Z,100.00
2022-11-13T01:38:51.841Z,100.00
2022-11-13T01:41:30.740Z,100.00
2022-11-13T01:43:57.624Z,100.00
2022-11-13T01:46:29.827Z,100.00
2022-11-13T01:49:10.370Z,100.00
2022-11-13T01:51:45.322Z,100.00
2022-11-13T01:54:19.009Z,100.00
2022-11-13T01:56:45.746Z,100.00
2022-11-13T01:59:16.028Z,100.00
2022-11-13T02:01:42.531Z,100.00
2022-11-13T02:04:09.376Z,100.00
2022-11-13T02:06:48.321Z,100.00
2022-11-13T02:09:17.721Z,100.00
2022-11-13T02:11:44.944Z,100.00
2022-11-13T02:14:13.979Z,100.00
2022-11-13T02:16:42.943Z,100.00
2022-11-13T02:19:40.667Z,100.00
2022-11-13T02:22:29.003Z,100.00
2022-11-13T02:24:58.655Z,100.00
2022-11-13T02:27:36.846Z,100.00
2022-11-13T02:30:16.293Z,100.00
2022-11-13T02:32:45.506Z,100.00
2022-11-13T02:35:14.998Z,100.00
2022-11-13T02:37:42.196Z,100.00
2022-11-13T02:40:09.171Z,100.00
2022-11-13T02:42:35.699Z,100.00
2022-11-13T02:45:02.194Z,100.00
2022-11-13T02:47:29.118Z,100.00
2022-11-13T02:49:55.596Z,100.00
2022-11-13T02:52:22.172Z,100.00
2022-11-13T02:54:48.587Z,100.00
2022-11-13T02:57:14.986Z,100.00
2022-11-13T02:59:41.728Z,100.00
2022-11-13T03:02:08.221Z,100.00
2022-11-13T03:05:04.880Z,100.00
2022-11-13T03:07:21.150Z,100.00
2022-11-13T03:09:47.597Z,100.00
2022-11-13T03:12:14.059Z,100.00
2022-11-13T03:14:40.469Z,100.00
2022-11-13T03:17:06.891Z,100.00
2022-11-13T03:19:33.313Z,100.00
2022-11-13T03:21:59.737Z,100.00
2022-11-13T03:24:26.163Z,100.00
2022-11-13T03:26:52.579Z,100.00
2022-11-13T03:29:19.002Z,100.00
2022-11-13T03:31:45.448Z,100.00
2022-11-13T03:34:11.898Z,100.00
2022-11-13T03:36:38.529Z,99.81
2022-11-13T03:39:04.955Z,100.00
2022-11-13T03:41:31.375Z,100.00
2022-11-13T03:43:57.758Z,100.00
2022-11-13T03:46:24.435Z,100.00
2022-11-13T03:48:50.881Z,100.00
2022-11-13T03:51:17.335Z,100.00
2022-11-13T03:53:43.755Z,100.00
2022-11-13T03:56:10.196Z,99.63
2022-11-13T03:58:40.152Z,100.00
2022-11-13T04:01:07.006Z,100.00
2022-11-13T04:03:33.463Z,100.00
2022-11-13T04:05:59.862Z,100.00
2022-11-13T04:08:26.600Z,100.00
2022-11-13T04:10:53.188Z,100.00
2022-11-13T04:13:19.584Z,100.00
2022-11-13T04:15:46.399Z,100.00
2022-11-13T04:18:12.811Z,100.00
2022-11-13T04:20:39.239Z,100.00
2022-11-13T04:23:09.616Z,100.00
2022-11-13T04:25:36.078Z,100.00
2022-11-13T04:28:02.487Z,100.00
2022-11-13T04:30:28.919Z,100.00
2022-11-13T04:32:55.364Z,100.00
2022-11-13T04:35:21.982Z,100.00
2022-11-13T04:37:48.456Z,100.00
2022-11-13T04:40:15.112Z,100.00
2022-11-13T04:42:50.444Z,100.00
2022-11-13T04:45:19.681Z,100.00
2022-11-13T04:47:46.338Z,100.00
2022-11-13T04:50:14.263Z,100.00
2022-11-13T04:52:41.403Z,100.00
2022-11-13T04:55:08.895Z,100.00
2022-11-13T04:57:35.825Z,100.00
2022-11-13T05:00:02.604Z,100.00
2022-11-13T05:02:29.019Z,100.00
2022-11-13T05:04:56.086Z,100.00
2022-11-13T05:07:26.416Z,100.00
2022-11-13T05:09:53.781Z,100.00
2022-11-13T05:12:21.092Z,100.00
2022-11-13T05:14:47.482Z,100.00
2022-11-13T05:17:14.305Z,100.00
2022-11-13T05:19:40.694Z,100.00
2022-11-13T05:22:07.183Z,100.00
2022-11-13T05:24:33.599Z,100.00
2022-11-13T05:27:00.000Z,100.00
2022-11-13T05:29:26.499Z,100.00
2022-11-13T05:31:52.948Z,100.00
2022-11-13T05:34:19.419Z,100.00
2022-11-13T05:36:45.834Z,100.00
2022-11-13T05:39:12.213Z,100.00
2022-11-13T05:41:38.675Z,100.00
2022-11-13T05:44:05.114Z,100.00
2022-11-13T05:46:31.555Z,100.00
2022-11-13T05:49:00.879Z,100.00
2022-11-13T05:51:29.776Z,100.00
2022-11-13T05:53:56.985Z,100.00
2022-11-13T05:56:31.856Z,100.00
2022-11-13T05:58:59.981Z,100.00
2022-11-13T06:01:44.350Z,100.00
2022-11-13T06:04:10.793Z,100.00
2022-11-13T06:06:37.220Z,100.00
2022-11-13T06:09:05.797Z,100.00
2022-11-13T06:11:32.701Z,100.00
2022-11-13T06:13:59.859Z,100.00
2022-11-13T06:16:34.790Z,100.00
2022-11-13T06:19:03.455Z,100.00
2022-11-13T06:21:32.185Z,100.00
2022-11-13T06:24:00.360Z,100.00
2022-11-13T06:26:33.183Z,99.39
2022-11-13T06:29:00.834Z,99.86
2022-11-13T06:31:30.007Z,100.00
2022-11-13T06:33:59.016Z,100.00
2022-11-13T06:36:28.080Z,100.00
2022-11-13T06:38:54.767Z,100.00
2022-11-13T06:41:23.368Z,100.00
2022-11-13T06:43:50.207Z,100.00
2022-11-13T06:46:24.874Z,100.00
2022-11-13T06:48:51.578Z,100.00
2022-11-13T06:51:23.229Z,100.00
2022-11-13T06:53:50.627Z,100.00
2022-11-13T06:56:18.458Z,100.00
2022-11-13T06:58:46.017Z,100.00
2022-11-13T07:01:18.959Z,100.00
2022-11-13T07:03:46.239Z,99.95
2022-11-13T07:06:19.097Z,100.00
2022-11-13T07:08:47.513Z,100.00
2022-11-13T07:11:17.007Z,100.00
2022-11-13T07:13:46.436Z,100.00
2022-11-13T07:16:17.989Z,100.00
2022-11-13T07:18:52.091Z,100.00
2022-11-13T07:21:19.670Z,100.00
2022-11-13T07:23:49.405Z,100.00
2022-11-13T07:26:17.931Z,100.00
2022-11-13T07:28:45.253Z,100.00
2022-11-13T07:31:13.179Z,100.00
2022-11-13T07:33:39.602Z,100.00
2022-11-13T07:36:06.679Z,100.00
2022-11-13T07:38:33.068Z,100.00
2022-11-13T07:40:59.955Z,100.00
2022-11-13T07:43:26.859Z,100.00
2022-11-13T07:45:56.704Z,100.00
2022-11-13T07:48:24.018Z,100.00
2022-11-13T07:50:50.869Z,100.00
2022-11-13T07:53:18.062Z,100.00
2022-11-13T07:55:44.526Z,100.00
2022-11-13T07:58:11.148Z,99.31
2022-11-13T08:00:37.619Z,99.61
2022-11-13T08:03:09.862Z,100.00
2022-11-13T08:05:36.570Z,99.95
2022-11-13T08:08:03.530Z,97.15
2022-11-13T08:10:30.122Z,97.31
2022-11-13T08:13:02.049Z,98.79
2022-11-13T08:15:29.624Z,98.67
2022-11-13T08:17:59.157Z,97.66
2022-11-13T08:20:27.241Z,96.77
2022-11-13T08:22:57.607Z,98.11
2022-11-13T08:25:24.392Z,98.23
2022-11-13T08:27:53.380Z,97.49
2022-11-13T08:30:20.587Z,97.97
2022-11-13T08:32:50.169Z,96.94
2022-11-13T08:35:19.895Z,97.43
2022-11-13T08:37:47.480Z,97.64
2022-11-13T08:40:14.253Z,98.42
2022-11-13T08:42:40.757Z,98.10
2022-11-13T08:45:08.207Z,96.82
2022-11-13T08:47:34.807Z,97.80
2022-11-13T08:50:01.262Z,96.77
2022-11-13T08:52:27.728Z,95.77
2022-11-13T08:54:54.646Z,96.92
2022-11-13T08:57:21.092Z,94.96
2022-11-13T08:59:47.481Z,95.43
2022-11-13T09:02:15.664Z,95.29
2022-11-13T09:04:42.813Z,95.91
2022-11-13T09:07:09.519Z,96.35
2022-11-13T09:09:35.971Z,95.80
2022-11-13T09:12:02.440Z,96.39
2022-11-13T09:14:28.864Z,95.33
2022-11-13T09:16:55.258Z,94.84
2022-11-13T09:19:22.052Z,94.65
2022-11-13T09:21:48.451Z,95.17
2022-11-13T09:24:14.923Z,95.88
2022-11-13T09:26:41.399Z,96.67
2022-11-13T09:29:07.903Z,95.15
2022-11-13T09:31:34.420Z,95.15
2022-11-13T09:34:00.846Z,95.58
2022-11-13T09:36:27.239Z,95.62
2022-11-13T09:38:53.629Z,93.82
2022-11-13T09:41:27.535Z,93.67
2022-11-13T09:43:59.808Z,93.91
2022-11-13T09:46:43.912Z,93.27
2022-11-13T09:49:15.936Z,93.75
2022-11-13T09:51:52.776Z,95.27
2022-11-13T09:54:20.653Z,93.88
2022-11-13T09:57:15.638Z,94.22
2022-11-13T09:59:53.150Z,93.48
2022-11-13T10:02:42.612Z,93.55
2022-11-13T10:05:46.099Z,93.55
2022-11-13T10:08:18.484Z,93.57
2022-11-13T10:10:53.700Z,93.39
2022-11-13T10:13:32.872Z,92.97
2022-11-13T10:16:14.242Z,92.22
2022-11-13T10:18:43.272Z,92.03
2022-11-13T10:21:27.763Z,93.71
2022-11-13T10:23:56.607Z,93.41
2022-11-13T10:26:27.847Z,91.45
2022-11-13T10:29:03.194Z,91.78
2022-11-13T10:31:29.684Z,91.91
2022-11-13T10:33:57.356Z,91.73
2022-11-13T10:37:03.447Z,92.66
2022-11-13T10:39:30.232Z,93.37
2022-11-13T10:41:56.814Z,93.15
2022-11-13T10:44:29.923Z,93.37
2022-11-13T10:47:26.480Z,93.03
2022-11-13T10:50:19.467Z,91.97
2022-11-13T10:52:48.567Z,90.66
2022-11-13T10:55:26.332Z,92.34
2022-11-13T10:57:58.467Z,93.45
2022-11-13T11:00:37.141Z,91.62
2022-11-13T11:03:03.574Z,90.82
2022-11-13T11:05:30.121Z,93.04
2022-11-13T11:07:57.570Z,93.52
2022-11-13T11:10:36.189Z,93.12
2022-11-13T11:13:09.848Z,91.91
2022-11-13T11:15:44.725Z,91.77
2022-11-13T11:18:25.731Z,91.21
2022-11-13T11:20:56.651Z,91.89
2022-11-13T11:23:56.197Z,91.38
2022-11-13T11:26:42.236Z,90.31
2022-11-13T11:29:34.098Z,91.05
2022-11-13T11:32:28.293Z,90.73
2022-11-13T11:35:12.048Z,91.09
2022-11-13T11:37:43.948Z,90.46
2022-11-13T11:40:24.254Z,90.67
2022-11-13T11:43:18.419Z,92.29
2022-11-13T11:45:46.809Z,91.59
2022-11-13T11:48:30.926Z,90.32
2022-11-13T11:51:28.016Z,90.37
2022-11-13T11:53:54.407Z,89.08
2022-11-13T11:56:32.561Z,88.96
2022-11-13T11:59:06.756Z,88.89
2022-11-13T12:01:54.248Z,87.84
2022-11-13T12:04:43.787Z,88.84
2022-11-13T12:07:29.416Z,88.83
2022-11-13T12:10:20.834Z,88.63
2022-11-13T12:13:12.829Z,87.66
2022-11-13T12:15:52.129Z,88.72
2022-11-13T12:18:43.100Z,89.71
2022-11-13T12:21:22.328Z,88.75
2022-11-13T12:24:16.763Z,89.36
2022-11-13T12:27:11.226Z,89.24
2022-11-13T12:30:17.120Z,91.39
2022-11-13T12:33:02.920Z,90.66
2022-11-13T12:35:30.239Z,89.55
2022-11-13T12:38:21.733Z,89.56
2022-11-13T12:40:54.040Z,88.20
2022-11-13T12:43:39.196Z,88.26
2022-11-13T12:46:11.619Z,89.60
2022-11-13T12:48:41.965Z,88.98
2022-11-13T12:51:18.510Z,89.57
2022-11-13T12:53:50.348Z,88.88
2022-11-13T12:56:30.950Z,89.42
2022-11-13T12:59:28.627Z,89.81
2022-11-13T13:01:56.901Z,89.75
2022-11-13T13:05:08.407Z,90.44
2022-11-13T13:07:50.067Z,90.96
2022-11-13T13:10:27.273Z,90.09
2022-11-13T13:13:22.619Z,90.53
2022-11-13T13:15:59.681Z,90.06
2022-11-13T13:18:35.132Z,89.63
2022-11-13T13:21:06.140Z,90.08
2022-11-13T13:23:44.394Z,90.21
2022-11-13T13:26:13.696Z,89.92
2022-11-13T13:28:43.135Z,89.48
2022-11-13T13:31:12.288Z,89.54
2022-11-13T13:33:44.664Z,89.42
2022-11-13T13:36:38.123Z,89.37
2022-11-13T13:39:32.040Z,88.99
2022-11-13T13:42:16.923Z,90.05
2022-11-13T13:45:23.724Z,89.90
2022-11-13T13:47:54.761Z,89.61
2022-11-13T13:50:24.930Z,89.11
2022-11-13T13:52:55.992Z,89.50
2022-11-13T13:55:26.470Z,88.99
2022-11-13T13:57:53.197Z,88.63
2022-11-13T14:00:21.328Z,89.27
2022-11-13T14:02:50.587Z,89.63
2022-11-13T14:05:29.173Z,90.63
2022-11-13T14:07:55.779Z,90.54
2022-11-13T14:10:28.298Z,91.25
2022-11-13T14:12:56.254Z,89.89
2022-11-13T14:15:28.813Z,90.90
2022-11-13T14:18:15.089Z,91.22
2022-11-13T14:20:52.477Z,91.52
2022-11-13T14:23:28.373Z,92.46
2022-11-13T14:25:56.677Z,91.86
2022-11-13T14:28:29.127Z,92.27
2022-11-13T14:30:59.727Z,91.67
2022-11-13T14:33:40.743Z,91.17
2022-11-13T14:36:07.669Z,91.81
2022-11-13T14:38:36.926Z,92.10
2022-11-13T14:41:04.471Z,91.53
2022-11-13T14:43:33.149Z,91.33
2022-11-13T14:46:05.727Z,92.26
2022-11-13T14:48:34.388Z,92.20
2022-11-13T14:51:02.984Z,91.79
2022-11-13T14:53:37.910Z,91.09
2022-11-13T14:56:09.206Z,92.57
2022-11-13T14:58:43.740Z,94.28
2022-11-13T15:01:18.258Z,94.94
2022-11-13T15:03:46.545Z,90.61
2022-11-13T15:06:40.493Z,91.05
2022-11-13T15:09:11.226Z,91.27
2022-11-13T15:11:40.257Z,90.65
2022-11-13T15:14:18.005Z,90.34
2022-11-13T15:16:46.448Z,90.83
2022-11-13T15:19:30.005Z,91.17
2022-11-13T15:24:43.563Z,90.80
2022-11-13T15:27:16.003Z,90.72
2022-11-13T15:29:42.789Z,91.42
2022-11-13T15:32:11.921Z,91.90
2022-11-13T15:34:38.461Z,92.40
2022-11-13T15:37:12.939Z,92.07
2022-11-13T15:39:39.735Z,92.27
2022-11-13T15:42:12.085Z,91.66
2022-11-13T15:44:39.054Z,91.96
2022-11-13T15:47:26.638Z,91.93
2022-11-13T15:50:12.435Z,92.14
2022-11-13T15:52:42.820Z,92.59
2022-11-13T15:55:39.823Z,92.51
2022-11-13T15:58:14.378Z,93.17
2022-11-13T16:00:42.847Z,93.07
2022-11-13T16:03:12.053Z,93.75
2022-11-13T16:05:38.697Z,94.56
2022-11-13T16:08:13.404Z,93.96
2022-11-13T16:10:39.808Z,93.62
2022-11-13T16:13:06.362Z,93.56
2022-11-13T16:15:32.777Z,94.56
2022-11-13T16:18:00.655Z,94.36
2022-11-13T16:20:27.292Z,94.00
2022-11-13T16:22:54.951Z,93.91
2022-11-13T16:25:22.641Z,94.33
2022-11-13T16:27:49.156Z,95.40
2022-11-13T16:30:19.796Z,95.14
2022-11-13T16:32:46.721Z,95.05
2022-11-13T16:35:17.579Z,94.77
2022-11-13T16:37:44.230Z,94.89
2022-11-13T16:40:19.320Z,95.94
2022-11-13T16:42:45.725Z,96.51
2022-11-13T16:45:12.145Z,96.92
2022-11-13T16:47:38.734Z,96.85
2022-11-13T16:50:12.716Z,96.29
2022-11-13T16:52:39.198Z,96.62
2022-11-13T16:55:06.814Z,96.59
2022-11-13T16:57:33.492Z,97.20
2022-11-13T16:59:59.924Z,98.46
2022-11-13T17:02:26.368Z,97.36
2022-11-13T17:04:56.067Z,96.79
2022-11-13T17:07:22.646Z,95.66
2022-11-13T17:09:58.942Z,96.26
2022-11-13T17:12:35.587Z,97.26
2022-11-13T17:15:02.013Z,96.46
2022-11-13T17:17:28.780Z,96.20
2022-11-13T17:19:55.380Z,96.87
2022-11-13T17:22:21.841Z,97.29
2022-11-13T17:24:49.796Z,97.93
2022-11-13T17:27:17.001Z,98.22
2022-11-13T17:29:43.451Z,97.94
2022-11-13T17:32:09.910Z,97.39
2022-11-13T17:34:36.699Z,96.88
2022-11-13T17:37:03.154Z,96.46
2022-11-13T17:39:29.567Z,96.51
2022-11-13T17:41:55.980Z,96.64
2022-11-13T17:44:22.449Z,97.21
2022-11-13T17:46:48.862Z,98.77
2022-11-13T17:49:16.396Z,99.09
2022-11-13T17:51:42.869Z,99.23
2022-11-13T17:54:09.410Z,99.04
2022-11-13T17:56:37.640Z,99.69
2022-11-13T17:59:04.458Z,99.77
2022-11-13T18:01:31.870Z,100.00
2022-11-13T18:03:58.505Z,100.00
2022-11-13T18:06:25.292Z,100.00
2022-11-13T18:08:51.763Z,100.00
2022-11-13T18:11:24.029Z,100.00
2022-11-13T18:13:51.260Z,100.00
2022-11-13T18:16:25.545Z,100.00
2022-11-13T18:18:55.441Z,100.00
2022-11-13T18:21:29.084Z,100.00
2022-11-13T18:24:00.381Z,100.00
2022-11-13T18:26:28.226Z,100.00
2022-11-13T18:28:55.382Z,100.00
2022-11-13T18:31:23.263Z,100.00
2022-11-13T18:33:50.027Z,100.00
2022-11-13T18:36:16.831Z,99.87
2022-11-13T18:38:43.493Z,100.00
2022-11-13T18:41:15.639Z,100.00
2022-11-13T18:43:46.903Z,100.00
2022-11-13T18:46:15.141Z,100.00
2022-11-13T18:48:42.954Z,100.00
2022-11-13T18:51:14.908Z,100.00
2022-11-13T18:53:43.643Z,100.00
2022-11-13T18:56:17.512Z,100.00
2022-11-13T18:58:46.319Z,100.00
2022-11-13T19:01:21.870Z,100.00
2022-11-13T19:04:16.116Z,100.00
2022-11-13T19:06:38.098Z,100.00
2022-11-13T19:09:07.795Z,100.00
2022-11-13T19:11:34.429Z,100.00
2022-11-13T19:14:01.006Z,100.00
2022-11-13T19:16:33.426Z,100.00
2022-11-13T19:19:05.414Z,100.00
2022-11-13T19:21:33.829Z,100.00
2022-11-13T19:24:01.365Z,100.00
2022-11-13T19:26:28.468Z,100.00
2022-11-13T19:28:55.455Z,100.00
2022-11-13T19:31:24.538Z,100.00
2022-11-13T19:33:58.843Z,100.00
2022-11-13T19:36:28.032Z,100.00
2022-11-13T19:38:55.654Z,100.00
2022-11-13T19:41:22.707Z,100.00
2022-11-13T19:43:49.173Z,100.00
2022-11-13T19:46:18.052Z,100.00
2022-11-13T19:48:46.304Z,100.00
2022-11-13T19:51:24.235Z,100.00
2022-11-13T19:53:59.321Z,100.00
2022-11-13T19:56:28.326Z,100.00
2022-11-13T19:58:55.521Z,100.00
2022-11-13T20:01:25.062Z,100.00
2022-11-13T20:03:59.978Z,100.00
2022-11-13T20:06:28.299Z,100.00
2022-11-13T20:08:54.926Z,100.00
2022-11-13T20:11:21.351Z,100.00
2022-11-13T20:13:47.782Z,100.00
2022-11-13T20:16:15.729Z,100.00
2022-11-13T20:18:43.237Z,100.00
2022-11-13T20:21:09.831Z,100.00
2022-11-13T20:23:36.597Z,100.00
2022-11-13T20:26:05.963Z,100.00
2022-11-13T20:28:32.726Z,100.00
2022-11-13T20:31:07.739Z,100.00
2022-11-13T20:33:34.978Z,100.00
2022-11-13T20:36:02.321Z,100.00
2022-11-13T20:38:29.662Z,100.00
2022-11-13T20:40:56.590Z,100.00
2022-11-13T20:43:23.607Z,100.00
2022-11-13T20:45:50.286Z,100.00
2022-11-13T20:48:16.772Z,100.00
2022-11-13T20:50:43.172Z,100.00
2022-11-13T20:53:09.586Z,100.00
2022-11-13T20:55:36.283Z,100.00
2022-11-13T20:58:02.968Z,100.00
2022-11-13T21:00:29.400Z,100.00
2022-11-13T21:02:55.893Z,100.00
2022-11-13T21:05:22.337Z,100.00
2022-11-13T21:07:48.821Z,100.00
2022-11-13T21:10:15.774Z,100.00
2022-11-13T21:12:42.230Z,100.00
2022-11-13T21:15:08.954Z,100.00
2022-11-13T21:17:35.366Z,100.00
2022-11-13T21:20:02.826Z,100.00
2022-11-13T21:22:29.288Z,100.00
2022-11-13T21:24:55.704Z,100.00
2022-11-13T21:27:22.110Z,100.00
2022-11-13T21:29:48.508Z,100.00
2022-11-13T21:32:14.938Z,100.00
2022-11-13T21:34:41.346Z,100.00
2022-11-13T21:37:08.158Z,100.00
2022-11-13T21:39:34.652Z,100.00
2022-11-13T21:42:01.071Z,100.00
2022-11-13T21:44:27.474Z,100.00
2022-11-13T21:46:54.176Z,100.00
2022-11-13T21:49:20.613Z,100.00
2022-11-13T21:51:47.112Z,100.00
2022-11-13T21:54:13.649Z,100.00
2022-11-13T21:56:41.848Z,100.00
2022-11-13T21:59:08.715Z,100.00
2022-11-13T22:01:38.464Z,100.00
2022-11-13T22:04:05.704Z,100.00
2022-11-13T22:06:36.243Z,100.00
2022-11-13T22:09:04.674Z,100.00
2022-11-13T22:11:34.587Z,100.00
2022-11-13T22:14:01.421Z,100.00
2022-11-13T22:16:32.094Z,100.00
2022-11-13T22:19:01.436Z,100.00
2022-11-13T22:21:28.957Z,100.00
2022-11-13T22:23:55.884Z,100.00
2022-11-13T22:26:24.043Z,100.00
2022-11-13T22:28:51.671Z,100.00
2022-11-13T22:31:20.606Z,100.00
2022-11-13T22:33:50.440Z,100.00
2022-11-13T22:36:21.753Z,100.00
2022-11-13T22:38:48.593Z,100.00
2022-11-13T22:41:22.613Z,100.00
2022-11-13T22:43:54.828Z,100.00
2022-11-13T22:46:23.870Z,100.00
2022-11-13T22:48:52.140Z,100.00
2022-11-13T22:51:22.750Z,100.00
2022-11-13T22:53:52.156Z,100.00
2022-11-13T22:56:19.868Z,100.00
2022-11-13T22:58:46.725Z,100.00
2022-11-13T23:01:14.478Z,100.00
2022-11-13T23:03:43.174Z,100.00
2022-11-13T23:06:10.893Z,100.00
2022-11-13T23:08:39.014Z,100.00
2022-11-13T23:11:14.359Z,100.00
2022-11-13T23:13:42.816Z,100.00
2022-11-13T23:16:11.519Z,100.00
2022-11-13T23:18:38.994Z,100.00
2022-11-13T23:21:06.657Z,100.00
2022-11-13T23:23:34.281Z,100.00
2022-11-13T23:26:00.922Z,100.00
2022-11-13T23:28:28.299Z,100.00
2022-11-13T23:30:55.455Z,100.00
2022-11-13T23:33:22.339Z,100.00
2022-11-13T23:35:49.609Z,100.00
2022-11-13T23:38:16.247Z,100.00
2022-11-13T23:40:42.879Z,100.00
2022-11-13T23:43:09.932Z,100.00
2022-11-13T23:45:36.343Z,100.00
2022-11-13T23:48:02.873Z,100.00
2022-11-13T23:50:29.300Z,100.00
2022-11-13T23:52:55.824Z,100.00
2022-11-13T23:55:23.547Z,100.00
2022-11-13T23:58:01.132Z,100.00
